Terminal Aerodrome Forecast
Issued by NWS

Home | Current Version | Previous Version | Text Only | Print | Product List | Glossary On
Versions: 1 2 3 4 5 6 7 8 9 10 11 12 13 14 15 16 17 18 19 20 21 22 23 24 25 26 27 28 29 30
000
FTUS41 KBOX 251741
TAFFMH
TAF
KFMH 251741Z 2518/2618 08010G20KT 3SM -SHRA BR OVC006
     FM252200 09012G22KT 2SM -SHRA BR OVC003
     FM260700 13014KT 1SM -SHRA BR OVC003 WS020/15045KT
     FM261400 14012G22KT 1 1/2SM -SHRA BR OVC003 WS020/16040KT
     FM261600 14012G22KT 2SM -SHRA BR OVC003=

USA.gov is the U.S. government's official web portal to all federal, state and local government web resources and services.